Flight Track Log - Related Links

Times and Time Zones

All times are in EDT time to prevent confusion due to time zone crossing. See the N102VU flight status page for this flight to view local times or setup timezone preferences in your user account.

Time Position Orientation Groundspeed Altitude Reporting Facility
EDT Latitude Longitude Course Direction KTS MPH feet Rate Location/Type
Thu 12:13:01 PM 36.1333 -86.8000 185° South 17 20 900  Level Nashville TRACON
Thu 12:13:32 PM 36.1283 -86.8006 185° South 120 138 1,200 396 Climbing Memphis Center
Thu 12:14:32 PM 36.1092 -86.7886 153° Southeast 95 109 1,500 333 Climbing Memphis Center
Thu 12:16:32 PM 36.0708 -86.7567 146° Southeast 85 98 2,200 367 Climbing Memphis Center
Thu 12:17:32 PM 36.0494 -86.7397 147° Southeast 90 104 2,600 400 Climbing Memphis Center
Thu 12:18:32 PM 36.0239 -86.7203 148° Southeast 96 110 3,000 200 Climbing Memphis Center
Thu 12:19:32 PM 35.9961 -86.6986 148° Southeast 101 116 3,000 50 Level Memphis Center
Thu 12:20:32 PM 35.9706 -86.6767 145° Southeast 107 123 3,100 300 Climbing Memphis Center
Thu 12:21:32 PM 35.9450 -86.6572 148° Southeast 112 129 3,600 450 Climbing Memphis Center
Thu 12:22:32 PM 35.9172 -86.6381 151° Southeast 112 129 4,000 200 Climbing Memphis Center
Thu 12:23:32 PM 35.8872 -86.6136 147° Southeast 118 136 4,000  Level Memphis Center
Thu 12:24:32 PM 35.8572 -86.5894 147° Southeast 123 142 4,000  Level Memphis Center
Thu 12:25:32 PM 35.8294 -86.5650 144° Southeast 134 154 4,000  Level Memphis Center
Thu 12:26:32 PM 35.7997 -86.5433 149° Southeast 129 148 4,000  Level Memphis Center
Thu 12:27:32 PM 35.7697 -86.5192 147° Southeast 129 148 4,000  Level Memphis Center
Thu 12:28:32 PM 35.7397 -86.4950 147° Southeast 129 148 4,000 -50 Level Memphis Center
Thu 12:29:32 PM 35.7100 -86.4761 153° Southeast 123 142 3,900 -50 Descending Memphis Center
Thu 12:30:32 PM 35.6800 -86.4494 144° Southeast 123 142 3,900  Level Memphis Center
Thu 12:31:32 PM 35.6500 -86.4278 150° Southeast 123 142 3,900 50 Level Memphis Center
Thu 12:32:32 PM 35.6200 -86.4036 147° Southeast 123 142 4,000 -100 Climbing Memphis Center
Thu 12:33:32 PM 35.5983 -86.3792 137° Southeast 123 142 3,700 -400 Descending Memphis Center
Thu 12:34:32 PM 35.5867 -86.3339 108° East 123 142 3,200 -400 Descending Memphis Center
Thu 12:35:32 PM 35.5747 -86.2908 109° East 129 148 2,900 -150 Descending Memphis Center
Thu 12:36:32 PM 35.5631 -86.2558 112° Southeast 123 142 2,900 -150 Level Memphis Center
Thu 12:37:32 PM 35.5336 -86.2469 166° South 103 119 2,600 -250 Descending Memphis Center
Thu 12:38:32 PM 35.4981 -86.2411 172° South 113 130 2,400 -100 Descending Memphis Center
Thu 12:39:32 PM 35.4667 -86.2403 179° South 107 123 2,400  Level Memphis Center

Login

Don't have an account? Register now (free) for customized features, flight alerts, and more!